createdAt,value
2018-05-09T00:00:15.457Z,19.10
2018-05-09T00:05:16.470Z,19.00
2018-05-09T00:10:17.570Z,19.20
2018-05-09T00:15:18.621Z,19.20
2018-05-09T00:20:19.637Z,19.20
2018-05-09T00:25:20.650Z,19.30
2018-05-09T00:30:21.711Z,19.30
2018-05-09T00:35:22.744Z,19.30
2018-05-09T00:40:24.237Z,19.30
2018-05-09T00:45:25.276Z,19.20
2018-05-09T00:50:26.309Z,19.20
2018-05-09T00:55:27.383Z,19.20
2018-05-09T01:00:29.138Z,19.10
2018-05-09T01:05:30.142Z,19.10
2018-05-09T01:10:31.154Z,19.10
2018-05-09T01:15:32.150Z,19.20
2018-05-09T01:20:33.158Z,19.20
2018-05-09T01:25:34.146Z,19.10
2018-05-09T01:30:35.891Z,19.10
2018-05-09T01:35:36.898Z,19.00
2018-05-09T01:40:38.462Z,19.00
2018-05-09T01:45:39.461Z,19.20
2018-05-09T01:50:40.473Z,19.20
2018-05-09T01:55:42.193Z,19.10
2018-05-09T02:00:43.182Z,19.00
2018-05-09T02:05:44.174Z,19.00
2018-05-09T02:10:45.169Z,19.00
2018-05-09T02:15:46.190Z,18.50
2018-05-09T02:20:47.193Z,18.00
2018-05-09T02:25:48.209Z,17.50
2018-05-09T02:30:49.218Z,17.20
2018-05-09T02:35:50.242Z,16.90
2018-05-09T02:40:51.260Z,16.90
2018-05-09T02:45:52.253Z,16.70
2018-05-09T02:50:53.271Z,17.00
2018-05-09T02:55:55.021Z,16.80
2018-05-09T03:00:56.051Z,16.70
2018-05-09T03:05:57.058Z,16.80
2018-05-09T03:10:58.815Z,16.50
2018-05-09T03:15:59.818Z,16.40
2018-05-09T03:21:00.821Z,16.20
2018-05-09T03:26:01.818Z,16.00
2018-05-09T03:31:03.595Z,16.10
2018-05-09T03:36:05.339Z,15.80
2018-05-09T03:41:06.358Z,15.80
2018-05-09T03:46:07.366Z,15.40
2018-05-09T03:51:08.421Z,15.60
2018-05-09T03:56:09.451Z,15.00
2018-05-09T04:01:10.528Z,15.10
2018-05-09T04:06:24.008Z,14.60
2018-05-09T04:11:26.571Z,14.60
2018-05-09T04:16:27.572Z,14.50
2018-05-09T04:21:28.572Z,14.60
2018-05-09T04:26:29.595Z,14.50
2018-05-09T04:31:30.617Z,14.90
2018-05-09T04:36:32.375Z,15.30
2018-05-09T04:41:33.392Z,15.30
2018-05-09T04:46:34.407Z,15.90
2018-05-09T04:51:36.151Z,16.10
2018-05-09T04:56:37.169Z,16.00
2018-05-09T05:01:38.918Z,16.10
2018-05-09T05:06:39.912Z,16.10
2018-05-09T05:11:40.901Z,16.30
2018-05-09T05:16:41.908Z,16.20
2018-05-09T05:21:42.929Z,16.50
2018-05-09T05:26:43.922Z,16.90
2018-05-09T05:31:44.906Z,17.30
2018-05-09T05:36:45.881Z,17.60
2018-05-09T05:41:46.882Z,17.90
2018-05-09T05:46:48.621Z,18.60
2018-05-09T05:51:49.654Z,18.60
2018-05-09T05:56:50.648Z,18.90
2018-05-09T06:01:51.658Z,19.30
2018-05-09T06:06:52.645Z,19.70
2018-05-09T06:11:53.655Z,20.00
2018-05-09T06:16:55.386Z,20.10
2018-05-09T06:21:56.386Z,20.00
2018-05-09T06:26:58.117Z,21.20
2018-05-09T06:31:59.105Z,21.10
2018-05-09T06:37:00.855Z,21.80
2018-05-09T06:42:01.861Z,21.70
2018-05-09T06:47:02.862Z,22.20
2018-05-09T06:52:03.862Z,22.40
2018-05-09T06:57:05.602Z,23.00
2018-05-09T07:02:06.591Z,23.00
2018-05-09T07:07:09.691Z,23.70
2018-05-09T07:12:15.665Z,23.60
2018-05-09T07:17:19.065Z,23.70
2018-05-09T07:22:22.699Z,23.70
2018-05-09T07:27:26.623Z,24.10
2018-05-09T07:32:31.811Z,24.10
2018-05-09T07:37:34.990Z,24.60
2018-05-09T07:42:39.212Z,24.90
2018-05-09T07:47:41.755Z,24.80
2018-05-09T07:52:45.019Z,24.70
2018-05-09T07:57:48.843Z,24.20
2018-05-09T08:02:55.333Z,24.70
2018-05-09T08:08:02.226Z,25.10
2018-05-09T08:13:04.275Z,25.60
2018-05-09T08:18:07.613Z,25.90
2018-05-09T08:23:09.503Z,25.80
2018-05-09T08:28:13.179Z,26.30
2018-05-09T08:33:16.801Z,26.20
2018-05-09T08:38:26.050Z,26.70
2018-05-09T08:43:33.140Z,26.40
2018-05-09T08:48:37.047Z,25.80
2018-05-09T08:53:41.251Z,26.00
2018-05-09T08:58:43.628Z,26.00
2018-05-09T09:03:47.753Z,27.00
2018-05-09T09:08:52.255Z,26.90
2018-05-09T09:13:55.302Z,27.10
2018-05-09T09:18:57.749Z,27.90
2018-05-09T09:24:00.943Z,27.60
2018-05-09T09:29:08.919Z,27.00
2018-05-09T09:34:13.505Z,26.10
2018-05-09T09:39:17.488Z,25.30
2018-05-09T09:44:19.619Z,24.30
2018-05-09T09:49:23.285Z,25.20
2018-05-09T09:54:25.422Z,25.00
2018-05-09T09:59:28.672Z,25.20
2018-05-09T10:04:31.883Z,25.10
2018-05-09T10:09:34.845Z,25.00
2018-05-09T10:14:38.059Z,24.90
2018-05-09T10:19:40.992Z,26.70
2018-05-09T10:24:46.826Z,25.80
2018-05-09T10:29:52.120Z,25.60
2018-05-09T10:34:58.898Z,25.50
2018-05-09T10:40:04.677Z,25.80
2018-05-09T10:45:10.252Z,25.90
2018-05-09T10:50:14.062Z,26.50
2018-05-09T10:55:16.873Z,26.40
2018-05-09T11:00:19.761Z,26.50
2018-05-09T11:05:21.740Z,26.40
2018-05-09T11:10:26.048Z,25.20
2018-05-09T11:15:32.915Z,25.10
2018-05-09T11:20:36.143Z,25.30
2018-05-09T11:25:39.436Z,24.80
2018-05-09T11:30:42.864Z,24.80
2018-05-09T11:35:47.610Z,25.60
2018-05-09T11:40:51.227Z,25.40
2018-05-09T11:45:53.411Z,25.50
2018-05-09T11:50:57.353Z,25.00
2018-05-09T11:56:00.032Z,25.70
2018-05-09T12:06:18.027Z,25.80
2018-05-09T12:11:20.927Z,26.10
2018-05-09T12:16:24.128Z,26.10
2018-05-09T12:21:27.084Z,26.20
2018-05-09T12:26:29.722Z,26.20
2018-05-09T12:31:34.012Z,25.50
2018-05-09T12:36:36.836Z,25.50
2018-05-09T12:41:42.372Z,26.20
2018-05-09T12:46:50.034Z,26.10
2018-05-09T12:51:54.673Z,25.80
2018-05-09T12:57:03.313Z,25.70
2018-05-09T13:02:08.973Z,26.40
2018-05-09T13:07:15.174Z,26.30
2018-05-09T13:12:19.905Z,25.70
2018-05-09T13:17:22.260Z,25.20
2018-05-09T13:22:25.447Z,25.30
2018-05-09T13:27:34.465Z,25.80
2018-05-09T13:32:41.447Z,25.90
2018-05-09T13:37:46.469Z,25.90
2018-05-09T13:42:52.880Z,25.90
2018-05-09T13:47:57.074Z,26.00
2018-05-09T13:52:58.457Z,26.00
2018-05-09T13:57:59.449Z,26.40
2018-05-09T14:03:00.430Z,26.60
2018-05-09T14:08:01.425Z,26.30
2018-05-09T14:13:02.482Z,26.10
2018-05-09T14:18:03.469Z,25.90
2018-05-09T14:23:04.493Z,26.10
2018-05-09T14:28:05.480Z,26.10
2018-05-09T14:33:06.457Z,26.20
2018-05-09T14:38:07.432Z,26.20
2018-05-09T14:43:09.158Z,26.20
2018-05-09T14:48:10.133Z,26.20
2018-05-09T14:53:11.134Z,26.20
2018-05-09T14:58:12.127Z,26.10
2018-05-09T15:03:13.118Z,26.10
2018-05-09T15:08:14.862Z,26.10
2018-05-09T15:13:15.849Z,26.00
2018-05-09T15:18:17.568Z,26.20
2018-05-09T15:23:18.542Z,26.10
2018-05-09T15:28:19.520Z,26.10
2018-05-09T15:33:20.504Z,26.10
2018-05-09T15:38:22.218Z,26.20
2018-05-09T15:43:23.193Z,26.10
2018-05-09T15:48:24.174Z,26.10
2018-05-09T15:53:25.146Z,26.00
2018-05-09T15:58:26.896Z,26.00
2018-05-09T16:03:27.871Z,25.90
2018-05-09T16:08:28.841Z,25.90
2018-05-09T16:13:30.577Z,25.80
2018-05-09T16:18:31.590Z,25.80
2018-05-09T16:23:32.574Z,25.90
2018-05-09T16:28:33.555Z,25.90
2018-05-09T16:33:34.532Z,25.80
2018-05-09T16:38:35.521Z,25.80
2018-05-09T16:43:36.529Z,25.80
2018-05-09T16:48:37.518Z,25.70
2018-05-09T16:53:39.227Z,25.60
2018-05-09T16:58:40.318Z,25.50
2018-05-09T17:03:42.114Z,25.50
2018-05-09T17:08:43.867Z,25.50
2018-05-09T17:13:45.613Z,25.50
2018-05-09T17:18:46.590Z,25.40
2018-05-09T17:23:47.574Z,25.50
2018-05-09T17:28:48.570Z,25.30
2018-05-09T17:33:49.558Z,25.30
2018-05-09T17:38:50.541Z,25.30
2018-05-09T17:43:51.536Z,25.20
2018-05-09T17:48:52.525Z,25.10
2018-05-09T17:53:53.522Z,25.00
2018-05-09T17:58:54.518Z,25.00
2018-05-09T18:03:55.533Z,25.00
2018-05-09T18:08:56.482Z,24.80
2018-05-09T18:13:57.465Z,24.70
2018-05-09T18:18:59.181Z,24.50
2018-05-09T18:24:00.158Z,24.40
2018-05-09T18:29:01.141Z,24.20
2018-05-09T18:34:02.878Z,23.50
2018-05-09T18:39:03.854Z,23.40
2018-05-09T18:44:04.831Z,23.20
2018-05-09T18:49:05.822Z,23.10
2018-05-09T18:54:06.848Z,23.00
2018-05-09T18:59:07.796Z,22.70
2018-05-09T19:04:08.778Z,22.40
2018-05-09T19:09:09.759Z,22.00
2018-05-09T19:14:10.739Z,21.90
2018-05-09T19:19:11.712Z,21.60
2018-05-09T19:24:12.717Z,21.40
2018-05-09T19:29:13.705Z,21.30
2018-05-09T19:34:14.717Z,21.20
2018-05-09T19:39:16.434Z,21.00
2018-05-09T19:44:17.418Z,20.90
2018-05-09T19:49:18.399Z,20.80
2018-05-09T19:54:20.122Z,20.60
2018-05-09T19:59:21.102Z,20.60
2018-05-09T20:04:22.085Z,20.50
2018-05-09T20:09:23.853Z,20.30
2018-05-09T20:14:24.898Z,20.30
2018-05-09T20:19:25.894Z,20.10
2018-05-09T20:24:26.938Z,20.20
2018-05-09T20:29:28.694Z,19.90
2018-05-09T20:34:29.737Z,19.90
2018-05-09T20:39:30.746Z,19.70
2018-05-09T20:44:31.793Z,19.80
2018-05-09T20:49:33.527Z,19.80
2018-05-09T20:54:34.556Z,19.80
2018-05-09T20:59:35.573Z,19.70
2018-05-09T21:04:36.641Z,19.60
2018-05-09T21:09:38.390Z,19.70
2018-05-09T21:14:39.430Z,19.70
2018-05-09T21:19:41.125Z,20.20
2018-05-09T21:24:42.118Z,20.10
2018-05-09T21:29:43.117Z,20.10
2018-05-09T21:34:44.114Z,20.00
2018-05-09T21:39:45.893Z,20.20
2018-05-09T21:44:46.933Z,20.20
2018-05-09T21:49:47.949Z,20.40
2018-05-09T21:54:48.939Z,20.50
2018-05-09T21:59:49.938Z,20.70
2018-05-09T22:04:50.965Z,20.60
2018-05-09T22:09:51.959Z,20.70
2018-05-09T22:14:52.966Z,20.70
2018-05-09T22:19:53.973Z,20.70
2018-05-09T22:24:55.025Z,20.90
2018-05-09T22:29:56.022Z,20.80
2018-05-09T22:34:57.034Z,20.70
2018-05-09T22:39:58.797Z,21.50
2018-05-09T22:45:00.550Z,21.90
2018-05-09T22:50:01.538Z,21.80
2018-05-09T22:55:02.560Z,21.60
2018-05-09T23:00:03.542Z,20.70
2018-05-09T23:05:05.366Z,20.60
2018-05-09T23:10:06.270Z,20.60
2018-05-09T23:15:07.278Z,20.80
2018-05-09T23:20:08.286Z,20.80
2018-05-09T23:25:09.298Z,20.70
2018-05-09T23:30:10.290Z,20.60
2018-05-09T23:35:11.280Z,20.50
2018-05-09T23:40:13.009Z,20.00
2018-05-09T23:45:13.999Z,20.00
2018-05-09T23:50:15.738Z,19.50
2018-05-09T23:55:16.740Z,19.40
